Time;durP1;ratioP1;P1;durP2;ratioP2;P2;SDS_P1;SDS_P2;PMS_P1;PMS_P2;Temp;Humidity;BMP_temperature;BMP_pressure;BME280_temperature;BME280_humidity;BME280_pressure;Samples;Min_cycle;Max_cycle;Signal;HPM_P1;HPM_P2
2021/05/07 00:01:17;;;;;;;;;;;18.80;50.30;;;;;;5000185;28;20266;-57
2021/05/07 00:03:43;;;;;;;;;;;18.80;50.20;;;;;;4992848;28;19917;-58
2021/05/07 00:06:09;;;;;;;;;;;18.80;50.30;;;;;;4997052;28;19928;-60
2021/05/07 00:08:35;;;;;;;;;;;18.80;50.30;;;;;;5000797;28;20004;-59
2021/05/07 00:11:04;;;;;;;;;;;18.80;50.30;;;;;;4999578;28;19940;-58
2021/05/07 00:13:29;;;;;;;;;;;18.80;50.30;;;;;;5001349;28;19932;-59
2021/05/07 00:15:55;;;;;;;;;;;18.80;50.30;;;;;;5000883;28;19917;-57
2021/05/07 00:18:20;;;;;;;;;;;18.80;50.20;;;;;;5000027;28;19971;-58
2021/05/07 00:20:46;;;;;;;;;;;18.80;50.30;;;;;;4996789;28;19931;-57
2021/05/07 00:23:11;;;;;;;;;;;18.80;50.20;;;;;;4982953;28;19918;-58
2021/05/07 00:25:37;;;;;;;;;;;18.80;50.20;;;;;;5000399;28;19930;-59
2021/05/07 00:28:03;;;;;;;;;;;18.80;50.30;;;;;;4999659;28;19918;-58
2021/05/07 00:30:28;;;;;;;;;;;18.80;50.20;;;;;;4998370;28;19929;-58
2021/05/07 00:32:54;;;;;;;;;;;18.80;50.20;;;;;;4998625;28;19972;-58
2021/05/07 00:35:19;;;;;;;;;;;18.80;50.20;;;;;;4981642;28;20016;-58
2021/05/07 00:37:45;;;;;;;;;;;18.80;50.20;;;;;;4995985;28;20004;-59
2021/05/07 00:40:11;;;;;;;;;;;18.80;50.20;;;;;;4997239;28;19985;-58
2021/05/07 00:42:36;;;;;;;;;;;18.80;50.20;;;;;;4997072;28;19922;-57
2021/05/07 00:45:01;;;;;;;;;;;18.80;50.20;;;;;;4999033;28;19925;-58
2021/05/07 00:47:27;;;;;;;;;;;18.80;50.10;;;;;;4999441;28;19925;-57
2021/05/07 00:49:52;;;;;;;;;;;18.70;50.10;;;;;;4999695;28;19953;-58
2021/05/07 00:52:18;;;;;;;;;;;18.70;50.10;;;;;;4999708;28;20598;-58
2021/05/07 00:54:43;;;;;;;;;;;18.70;50.10;;;;;;4982289;28;19917;-58
2021/05/07 00:57:09;;;;;;;;;;;18.70;50.10;;;;;;4982155;28;19918;-58
2021/05/07 00:59:34;;;;;;;;;;;18.70;50.10;;;;;;5000594;28;19929;-59
2021/05/07 01:01:59;;;;;;;;;;;18.70;50.20;;;;;;4992822;28;20302;-59
2021/05/07 01:04:26;;;;;;;;;;;18.70;50.10;;;;;;4995956;28;19925;-58
2021/05/07 01:06:51;;;;;;;;;;;18.70;50.10;;;;;;5003993;28;20020;-58
2021/05/07 01:09:17;;;;;;;;;;;18.70;50.10;;;;;;4974035;28;20037;-58
2021/05/07 01:11:43;;;;;;;;;;;18.70;50.20;;;;;;5000756;28;20319;-58
2021/05/07 01:14:08;;;;;;;;;;;18.70;50.10;;;;;;5000171;28;19917;-58
2021/05/07 01:16:33;;;;;;;;;;;18.70;50.20;;;;;;4997709;28;21858;-59
2021/05/07 01:18:59;;;;;;;;;;;18.70;50.10;;;;;;4999933;28;19972;-59
2021/05/07 01:21:25;;;;;;;;;;;18.70;50.10;;;;;;4981954;28;19917;-59
2021/05/07 01:23:50;;;;;;;;;;;18.70;50.10;;;;;;4999898;28;19917;-59
2021/05/07 01:26:16;;;;;;;;;;;18.70;50.10;;;;;;4997483;28;19932;-58
2021/05/07 01:28:41;;;;;;;;;;;18.60;50.10;;;;;;4998961;28;19918;-60
2021/05/07 01:31:07;;;;;;;;;;;18.70;50.20;;;;;;4996381;28;20661;-59
2021/05/07 01:33:32;;;;;;;;;;;18.70;50.20;;;;;;4998689;28;19931;-59
2021/05/07 01:35:58;;;;;;;;;;;18.70;50.20;;;;;;4996269;28;19944;-58
2021/05/07 01:38:23;;;;;;;;;;;18.60;50.10;;;;;;4997403;28;19929;-58
2021/05/07 01:40:49;;;;;;;;;;;18.70;50.20;;;;;;4999920;28;20023;-58
2021/05/07 01:43:15;;;;;;;;;;;18.70;50.20;;;;;;4994041;28;20434;-58
2021/05/07 01:45:43;;;;;;;;;;;18.70;50.20;;;;;;4999557;28;20008;-58
2021/05/07 01:48:09;;;;;;;;;;;18.60;50.20;;;;;;5002364;28;19925;-59
2021/05/07 01:50:35;;;;;;;;;;;18.70;50.20;;;;;;5001136;28;19939;-57
2021/05/07 01:53:01;;;;;;;;;;;18.60;50.10;;;;;;5003850;28;20003;-57
2021/05/07 01:55:35;;;;;;;;;;;18.60;50.10;;;;;;5002799;28;19921;-58
2021/05/07 01:58:01;;;;;;;;;;;18.70;50.20;;;;;;5000026;28;19922;-58
2021/05/07 02:00:27;;;;;;;;;;;18.70;50.20;;;;;;4996398;28;19925;-58
2021/05/07 02:02:52;;;;;;;;;;;18.60;50.10;;;;;;5002134;28;19921;-57
2021/05/07 02:05:18;;;;;;;;;;;18.60;50.10;;;;;;5002701;28;20144;-58
2021/05/07 02:07:47;;;;;;;;;;;18.60;50.10;;;;;;5001339;28;19918;-59
2021/05/07 02:10:13;;;;;;;;;;;18.60;50.10;;;;;;5000371;28;19917;-57
2021/05/07 02:12:39;;;;;;;;;;;18.70;50.20;;;;;;5010555;28;19918;-60
2021/05/07 02:15:05;;;;;;;;;;;18.60;50.10;;;;;;5002139;28;19925;-59
2021/05/07 02:17:30;;;;;;;;;;;18.60;50.10;;;;;;4999583;28;20331;-59
2021/05/07 02:19:56;;;;;;;;;;;18.60;50.10;;;;;;5001727;28;19978;-56
2021/05/07 02:22:21;;;;;;;;;;;18.60;50.10;;;;;;5000116;28;20637;-59
2021/05/07 02:24:46;;;;;;;;;;;18.60;50.10;;;;;;5002296;28;19918;-58
2021/05/07 02:27:12;;;;;;;;;;;18.60;50.10;;;;;;5001815;28;19967;-59
2021/05/07 02:29:37;;;;;;;;;;;18.60;50.10;;;;;;5000634;28;19937;-58
2021/05/07 02:32:03;;;;;;;;;;;18.60;50.10;;;;;;5003292;28;20373;-58
2021/05/07 02:34:28;;;;;;;;;;;18.60;50.10;;;;;;5002845;28;19992;-59
2021/05/07 02:36:54;;;;;;;;;;;18.60;50.10;;;;;;4998269;28;19917;-58
2021/05/07 02:39:19;;;;;;;;;;;18.60;50.10;;;;;;5001688;28;19925;-59
2021/05/07 02:41:45;;;;;;;;;;;18.60;50.10;;;;;;5000511;28;20384;-59
2021/05/07 02:44:10;;;;;;;;;;;18.60;50.10;;;;;;5001319;28;19918;-58
2021/05/07 02:46:36;;;;;;;;;;;18.60;50.10;;;;;;5002911;28;19940;-55
2021/05/07 02:49:05;;;;;;;;;;;18.60;50.10;;;;;;5001929;28;20406;-58
2021/05/07 02:51:30;;;;;;;;;;;18.60;50.10;;;;;;5001968;28;19918;-58
2021/05/07 02:53:56;;;;;;;;;;;18.60;50.10;;;;;;4998645;28;19925;-58
2021/05/07 02:56:21;;;;;;;;;;;18.60;50.20;;;;;;5001603;28;19917;-58
2021/05/07 02:58:47;;;;;;;;;;;18.60;50.20;;;;;;5002166;28;20059;-58
2021/05/07 03:01:12;;;;;;;;;;;18.50;50.20;;;;;;4977545;28;20580;-56
2021/05/07 03:03:38;;;;;;;;;;;18.60;50.20;;;;;;5001742;28;19924;-58
2021/05/07 03:06:03;;;;;;;;;;;18.60;50.10;;;;;;5001430;28;19918;-58
2021/05/07 03:08:29;;;;;;;;;;;18.50;50.20;;;;;;4995319;28;20684;-58
2021/05/07 03:10:54;;;;;;;;;;;18.50;50.20;;;;;;4996194;28;19948;-59
2021/05/07 03:13:20;;;;;;;;;;;18.60;50.20;;;;;;4999915;28;19976;-58
2021/05/07 03:15:45;;;;;;;;;;;18.60;50.20;;;;;;4996068;28;19956;-58
2021/05/07 03:18:14;;;;;;;;;;;18.60;50.20;;;;;;5000070;28;19921;-60
2021/05/07 03:20:40;;;;;;;;;;;18.50;50.20;;;;;;5000043;28;19921;-62
2021/05/07 03:23:05;;;;;;;;;;;18.50;50.20;;;;;;5001739;28;19918;-58
2021/05/07 03:25:31;;;;;;;;;;;18.50;50.20;;;;;;5002233;28;19925;-58
2021/05/07 03:27:56;;;;;;;;;;;18.50;50.20;;;;;;5001340;28;19983;-58
2021/05/07 03:30:21;;;;;;;;;;;18.50;50.10;;;;;;5001005;28;19956;-56
2021/05/07 03:32:47;;;;;;;;;;;18.50;50.20;;;;;;5001034;28;19918;-58
2021/05/07 03:35:12;;;;;;;;;;;18.50;50.20;;;;;;5001175;28;19917;-55
2021/05/07 03:37:38;;;;;;;;;;;18.50;50.20;;;;;;5001122;28;19968;-58
2021/05/07 03:40:04;;;;;;;;;;;18.50;50.20;;;;;;5000187;28;20782;-58
2021/05/07 03:42:31;;;;;;;;;;;18.50;50.20;;;;;;4980266;28;19921;-57
2021/05/07 03:44:57;;;;;;;;;;;18.50;50.20;;;;;;5000642;28;20322;-57
2021/05/07 03:47:22;;;;;;;;;;;18.50;50.20;;;;;;4982094;28;19979;-58
2021/05/07 03:49:48;;;;;;;;;;;18.50;50.20;;;;;;5000156;28;20271;-58
2021/05/07 03:52:13;;;;;;;;;;;18.50;50.20;;;;;;4995193;28;19918;-57
2021/05/07 03:54:39;;;;;;;;;;;18.50;50.20;;;;;;4997102;28;19975;-58
2021/05/07 03:57:04;;;;;;;;;;;18.50;50.20;;;;;;4997005;28;20390;-55
2021/05/07 03:59:30;;;;;;;;;;;18.50;50.20;;;;;;5000853;28;19929;-57
2021/05/07 04:01:55;;;;;;;;;;;18.50;50.80;;;;;;4999841;28;19921;-58
2021/05/07 04:04:20;;;;;;;;;;;18.50;50.20;;;;;;4999163;28;19940;-57
2021/05/07 04:06:46;;;;;;;;;;;18.50;50.20;;;;;;4998823;28;19917;-58
2021/05/07 04:09:16;;;;;;;;;;;18.50;50.20;;;;;;4994609;28;19941;-59
2021/05/07 04:14:13;;;;;;;;;;;18.50;50.20;;;;;;5000932;28;19924;-59
2021/05/07 04:16:39;;;;;;;;;;;18.50;50.20;;;;;;4996933;28;19918;-57
2021/05/07 04:19:04;;;;;;;;;;;18.50;50.30;;;;;;5000208;28;21141;-56
2021/05/07 04:21:29;;;;;;;;;;;18.50;50.20;;;;;;5000014;28;19933;-56
2021/05/07 04:23:55;;;;;;;;;;;18.50;50.20;;;;;;4997148;28;19926;-56
2021/05/07 04:26:20;;;;;;;;;;;18.50;50.20;;;;;;4999393;28;19917;-56
2021/05/07 04:28:46;;;;;;;;;;;18.50;50.20;;;;;;5000537;28;19918;-58
2021/05/07 04:31:11;;;;;;;;;;;18.50;50.30;;;;;;4993233;28;20298;-59
2021/05/07 04:33:37;;;;;;;;;;;18.50;50.30;;;;;;4974088;28;20401;-56
2021/05/07 04:36:02;;;;;;;;;;;18.50;50.30;;;;;;4995944;28;19936;-59
2021/05/07 04:38:28;;;;;;;;;;;18.50;50.30;;;;;;5000098;28;19928;-58
2021/05/07 04:40:53;;;;;;;;;;;18.40;50.20;;;;;;4980856;28;19929;-58
2021/05/07 04:43:19;;;;;;;;;;;18.50;50.30;;;;;;4999919;28;19967;-57
2021/05/07 04:45:44;;;;;;;;;;;18.50;50.30;;;;;;4999860;28;20386;-57
2021/05/07 04:48:13;;;;;;;;;;;18.50;50.30;;;;;;4998887;28;19941;-58
2021/05/07 04:50:38;;;;;;;;;;;18.40;50.20;;;;;;4996541;28;20482;-58
2021/05/07 04:53:04;;;;;;;;;;;18.40;50.20;;;;;;4999748;28;19917;-58
2021/05/07 04:55:29;;;;;;;;;;;18.40;50.20;;;;;;5001580;28;19948;-56
2021/05/07 04:57:55;;;;;;;;;;;18.40;50.20;;;;;;5000174;28;19921;-56
2021/05/07 05:00:20;;;;;;;;;;;18.40;50.20;;;;;;5000706;28;19917;-56
2021/05/07 05:02:46;;;;;;;;;;;18.50;50.30;;;;;;5001297;28;19917;-59
2021/05/07 05:05:12;;;;;;;;;;;18.40;50.20;;;;;;5000942;28;19918;-59
2021/05/07 05:07:38;;;;;;;;;;;18.50;50.30;;;;;;5001575;28;19924;-59
2021/05/07 05:10:04;;;;;;;;;;;18.50;50.50;;;;;;4982170;28;19918;-57
2021/05/07 05:12:29;;;;;;;;;;;18.40;50.50;;;;;;4999861;28;19955;-58
2021/05/07 05:14:55;;;;;;;;;;;18.40;50.80;;;;;;4998081;28;19917;-57
2021/05/07 05:17:20;;;;;;;;;;;18.40;51.10;;;;;;4997871;28;19921;-57
2021/05/07 05:19:47;;;;;;;;;;;18.50;51.40;;;;;;4997097;28;19921;-58
2021/05/07 05:22:13;;;;;;;;;;;18.40;51.20;;;;;;4994625;28;19926;-57
2021/05/07 05:24:38;;;;;;;;;;;18.50;51.20;;;;;;5001301;28;19940;-58
2021/05/07 05:27:04;;;;;;;;;;;18.50;51.00;;;;;;4999313;28;19926;-58
2021/05/07 05:29:29;;;;;;;;;;;18.50;50.90;;;;;;4993589;28;20502;-59
2021/05/07 05:31:55;;;;;;;;;;;18.40;50.80;;;;;;4999587;28;19921;-59
2021/05/07 05:34:20;;;;;;;;;;;18.40;50.70;;;;;;4991787;28;19945;-59
2021/05/07 05:36:46;;;;;;;;;;;18.50;50.70;;;;;;4998110;28;19927;-59
2021/05/07 05:39:15;;;;;;;;;;;18.40;50.90;;;;;;5003740;28;19918;-58
2021/05/07 05:41:40;;;;;;;;;;;18.40;50.90;;;;;;5002748;28;19913;-59
2021/05/07 05:44:06;;;;;;;;;;;18.40;50.90;;;;;;5004149;28;20319;-58
2021/05/07 05:46:32;;;;;;;;;;;18.40;50.80;;;;;;5003712;28;19921;-57
2021/05/07 05:48:57;;;;;;;;;;;18.40;50.70;;;;;;5004447;28;19921;-58
2021/05/07 05:51:22;;;;;;;;;;;18.40;50.60;;;;;;5004724;28;19944;-59
2021/05/07 05:53:48;;;;;;;;;;;18.40;50.60;;;;;;5002625;28;20544;-57
2021/05/07 05:56:13;;;;;;;;;;;18.40;50.60;;;;;;5004866;28;19913;-56
2021/05/07 05:58:39;;;;;;;;;;;18.40;51.40;;;;;;5004926;28;19921;-57
2021/05/07 06:01:04;;;;;;;;;;;18.40;51.90;;;;;;4986101;28;19998;-58
2021/05/07 06:03:30;;;;;;;;;;;18.40;52.10;;;;;;5005076;28;19925;-59
2021/05/07 06:05:55;;;;;;;;;;;18.40;52.10;;;;;;5004440;28;19919;-57
2021/05/07 06:08:22;;;;;;;;;;;18.40;52.20;;;;;;4986740;28;19914;-56
2021/05/07 06:10:47;;;;;;;;;;;18.40;52.10;;;;;;5004807;28;19971;-58
2021/05/07 06:13:13;;;;;;;;;;;18.40;52.00;;;;;;5004301;28;19917;-56
2021/05/07 06:15:38;;;;;;;;;;;18.40;52.00;;;;;;5005144;28;19920;-56
2021/05/07 06:18:04;;;;;;;;;;;18.40;52.00;;;;;;5004077;28;19921;-56
2021/05/07 06:20:29;;;;;;;;;;;18.40;52.00;;;;;;5003990;28;19921;-56
2021/05/07 06:22:55;;;;;;;;;;;18.40;51.90;;;;;;5004441;28;19913;-57
2021/05/07 06:25:24;;;;;;;;;;;18.40;51.90;;;;;;5004574;28;19972;-56
2021/05/07 06:27:49;;;;;;;;;;;18.40;51.90;;;;;;5004355;28;19968;-56
2021/05/07 06:30:15;;;;;;;;;;;18.40;51.70;;;;;;5004024;28;19922;-58
2021/05/07 06:32:41;;;;;;;;;;;18.40;51.60;;;;;;4985701;28;19914;-60
2021/05/07 06:35:07;;;;;;;;;;;18.40;51.50;;;;;;5004982;28;20367;-56
2021/05/07 06:37:32;;;;;;;;;;;18.40;51.40;;;;;;5003446;28;19996;-58
2021/05/07 06:39:58;;;;;;;;;;;18.40;51.30;;;;;;5003579;28;19918;-57
2021/05/07 06:42:23;;;;;;;;;;;18.40;51.20;;;;;;5004016;28;19920;-59
2021/05/07 06:44:48;;;;;;;;;;;18.40;51.10;;;;;;5003760;28;19940;-57
2021/05/07 06:47:14;;;;;;;;;;;18.40;51.00;;;;;;5003533;28;19928;-58
2021/05/07 06:49:43;;;;;;;;;;;18.40;50.90;;;;;;5003682;28;19917;-57
2021/05/07 06:52:08;;;;;;;;;;;18.40;51.40;;;;;;4975737;28;19922;-57
2021/05/07 06:54:34;;;;;;;;;;;18.40;50.70;;;;;;5002974;28;19940;-59
2021/05/07 06:57:02;;;;;;;;;;;18.40;50.70;;;;;;5002459;28;19964;-59
2021/05/07 06:59:28;;;;;;;;;;;18.40;50.70;;;;;;4985173;28;19952;-59
2021/05/07 07:01:53;;;;;;;;;;;18.40;50.60;;;;;;4985722;28;20367;-59
2021/05/07 07:04:19;;;;;;;;;;;18.40;50.60;;;;;;5003236;28;19914;-58
2021/05/07 07:06:44;;;;;;;;;;;18.40;50.60;;;;;;5002184;28;20696;-59
2021/05/07 07:09:11;;;;;;;;;;;18.40;50.50;;;;;;5002885;28;19914;-58
2021/05/07 07:11:37;;;;;;;;;;;18.40;50.40;;;;;;5003563;28;19939;-57
2021/05/07 07:14:02;;;;;;;;;;;18.40;50.80;;;;;;5004299;28;20282;-57
2021/05/07 07:16:28;;;;;;;;;;;18.40;51.00;;;;;;5003326;28;19941;-57
2021/05/07 07:18:53;;;;;;;;;;;18.40;51.00;;;;;;5003248;28;19917;-58
2021/05/07 07:21:19;;;;;;;;;;;18.40;51.10;;;;;;5003086;28;20000;-58
2021/05/07 07:23:44;;;;;;;;;;;18.30;51.10;;;;;;5004185;28;19913;-57
2021/05/07 07:26:10;;;;;;;;;;;18.30;51.20;;;;;;5003956;28;19948;-57
2021/05/07 07:28:36;;;;;;;;;;;18.30;51.20;;;;;;5003366;28;20587;-57
2021/05/07 07:31:02;;;;;;;;;;;18.40;51.30;;;;;;5002911;28;20320;-58
2021/05/07 07:33:28;;;;;;;;;;;18.40;51.30;;;;;;5003051;28;19921;-58
2021/05/07 07:35:54;;;;;;;;;;;18.40;51.30;;;;;;5002422;28;19918;-57
2021/05/07 07:38:19;;;;;;;;;;;18.40;51.30;;;;;;5002712;28;19952;-58
2021/05/07 07:40:44;;;;;;;;;;;18.40;51.30;;;;;;5002512;28;20334;-61
2021/05/07 07:43:10;;;;;;;;;;;18.40;51.30;;;;;;5003951;28;19920;-57
2021/05/07 07:45:41;;;;;;;;;;;18.40;51.20;;;;;;5001538;28;20011;-59
2021/05/07 07:48:07;;;;;;;;;;;18.40;51.20;;;;;;5002258;28;19922;-57
2021/05/07 07:50:32;;;;;;;;;;;18.40;51.20;;;;;;5001128;28;20012;-57
2021/05/07 07:52:58;;;;;;;;;;;18.40;51.20;;;;;;5002214;28;20638;-58
2021/05/07 07:55:23;;;;;;;;;;;18.40;51.00;;;;;;5001770;28;19948;-59
2021/05/07 07:57:49;;;;;;;;;;;18.40;50.90;;;;;;5001733;28;19917;-58
2021/05/07 08:00:14;;;;;;;;;;;18.40;50.80;;;;;;5001492;28;19913;-58
2021/05/07 08:02:40;;;;;;;;;;;18.40;50.70;;;;;;5002316;28;20004;-59
2021/05/07 08:05:05;;;;;;;;;;;18.40;50.60;;;;;;5001076;28;19917;-58
2021/05/07 08:07:31;;;;;;;;;;;18.40;50.50;;;;;;5002800;28;19914;-58
2021/05/07 08:09:56;;;;;;;;;;;18.40;50.40;;;;;;5002079;28;19914;-58
2021/05/07 08:12:22;;;;;;;;;;;18.40;50.30;;;;;;5002664;28;19917;-59
2021/05/07 08:14:47;;;;;;;;;;;18.40;50.30;;;;;;5002343;28;20497;-59
2021/05/07 08:17:13;;;;;;;;;;;18.30;50.20;;;;;;5002571;28;19913;-58
2021/05/07 08:19:38;;;;;;;;;;;18.30;50.20;;;;;;5001757;28;19918;-59
2021/05/07 08:22:04;;;;;;;;;;;18.30;50.20;;;;;;5002201;28;19929;-57
2021/05/07 08:24:29;;;;;;;;;;;18.30;50.20;;;;;;5002348;28;20439;-59
2021/05/07 08:26:56;;;;;;;;;;;18.30;50.20;;;;;;5001956;28;19993;-59
2021/05/07 08:29:22;;;;;;;;;;;18.30;50.20;;;;;;5002688;28;20672;-58
2021/05/07 08:31:47;;;;;;;;;;;18.30;50.20;;;;;;5002893;28;19914;-57
2021/05/07 08:34:14;;;;;;;;;;;18.30;50.20;;;;;;5002452;28;19928;-58
2021/05/07 08:36:40;;;;;;;;;;;18.30;50.20;;;;;;5001802;28;20001;-57
2021/05/07 08:39:05;;;;;;;;;;;18.30;50.30;;;;;;5002272;28;19924;-58
2021/05/07 08:41:31;;;;;;;;;;;18.30;50.20;;;;;;5001395;28;20433;-59
2021/05/07 08:43:56;;;;;;;;;;;18.30;50.20;;;;;;4984772;28;19924;-58
2021/05/07 08:46:22;;;;;;;;;;;18.30;50.30;;;;;;5001732;28;19956;-59
2021/05/07 08:48:47;;;;;;;;;;;18.30;50.30;;;;;;4984304;28;19921;-59
2021/05/07 08:51:12;;;;;;;;;;;18.30;50.40;;;;;;4984583;28;20298;-59
2021/05/07 08:53:38;;;;;;;;;;;18.30;50.40;;;;;;5002258;28;19913;-58
2021/05/07 08:56:04;;;;;;;;;;;18.30;51.10;;;;;;5002065;28;19914;-59
2021/05/07 08:58:29;;;;;;;;;;;18.30;50.40;;;;;;5001295;28;19989;-59
2021/05/07 09:00:55;;;;;;;;;;;18.30;50.40;;;;;;5001489;28;19920;-59
2021/05/07 09:03:20;;;;;;;;;;;18.30;50.50;;;;;;5001660;28;20568;-57
2021/05/07 09:05:46;;;;;;;;;;;18.30;50.40;;;;;;5001785;28;19914;-59
2021/05/07 09:08:11;;;;;;;;;;;18.30;50.40;;;;;;5002274;28;19922;-59
2021/05/07 09:10:40;;;;;;;;;;;18.30;50.40;;;;;;5001030;28;19913;-58
2021/05/07 09:13:06;;;;;;;;;;;18.30;50.40;;;;;;5002506;28;19928;-57
2021/05/07 09:15:41;;;;;;;;;;;18.30;50.40;;;;;;5001402;28;19913;-59
2021/05/07 09:18:07;;;;;;;;;;;18.30;50.40;;;;;;5001358;28;19929;-58
2021/05/07 09:20:39;;;;;;;;;;;18.30;50.50;;;;;;4984373;28;19914;-57
2021/05/07 09:23:05;;;;;;;;;;;18.30;50.50;;;;;;5002130;28;19914;-59
2021/05/07 09:25:31;;;;;;;;;;;18.30;50.50;;;;;;5001533;28;20275;-58
2021/05/07 09:28:09;;;;;;;;;;;18.30;50.50;;;;;;4981564;28;19960;-57
2021/05/07 09:30:34;;;;;;;;;;;18.30;50.50;;;;;;5000700;28;20319;-59
2021/05/07 09:33:03;;;;;;;;;;;18.30;50.50;;;;;;4974351;28;19922;-58
2021/05/07 09:35:29;;;;;;;;;;;18.30;50.50;;;;;;5000873;28;19913;-59
2021/05/07 09:37:59;;;;;;;;;;;18.30;50.50;;;;;;5001319;28;20089;-59
2021/05/07 09:40:24;;;;;;;;;;;18.20;51.10;;;;;;5000915;28;20003;-59
2021/05/07 09:42:50;;;;;;;;;;;18.20;50.40;;;;;;5001620;28;20351;-58
2021/05/07 09:45:18;;;;;;;;;;;18.20;50.40;;;;;;5000469;28;19921;-58
2021/05/07 09:47:44;;;;;;;;;;;18.20;50.40;;;;;;5000250;28;19984;-59
2021/05/07 09:50:10;;;;;;;;;;;18.20;50.40;;;;;;4982696;28;19930;-57
2021/05/07 09:52:35;;;;;;;;;;;18.20;50.40;;;;;;5000259;28;19972;-59
2021/05/07 09:55:00;;;;;;;;;;;18.20;50.40;;;;;;4983138;28;20668;-58
2021/05/07 09:57:26;;;;;;;;;;;18.20;50.40;;;;;;4999695;28;19920;-56
2021/05/07 09:59:51;;;;;;;;;;;18.20;50.40;;;;;;4982530;28;19921;-57
2021/05/07 10:02:17;;;;;;;;;;;18.20;50.40;;;;;;5000695;28;20417;-58
2021/05/07 10:04:43;;;;;;;;;;;18.20;50.50;;;;;;4983629;28;19920;-58
2021/05/07 10:07:08;;;;;;;;;;;18.20;50.40;;;;;;5000594;28;20279;-58
2021/05/07 10:09:35;;;;;;;;;;;18.20;50.40;;;;;;5003978;28;19918;-59
2021/05/07 10:12:03;;;;;;;;;;;18.20;50.40;;;;;;5002823;28;19928;-59
2021/05/07 10:14:28;;;;;;;;;;;18.20;50.40;;;;;;4986418;28;19917;-59
2021/05/07 10:16:54;;;;;;;;;;;18.20;50.40;;;;;;4986238;28;19921;-59
2021/05/07 10:19:19;;;;;;;;;;;18.20;50.30;;;;;;5003682;28;19925;-59
2021/05/07 10:21:45;;;;;;;;;;;18.20;50.40;;;;;;4970077;28;19913;-59
2021/05/07 10:24:20;;;;;;;;;;;18.20;50.30;;;;;;5003636;28;19914;-57
2021/05/07 10:26:48;;;;;;;;;;;18.20;50.40;;;;;;5002040;28;19914;-58
2021/05/07 10:29:23;;;;;;;;;;;18.20;50.30;;;;;;5003333;28;19913;-59
2021/05/07 10:31:48;;;;;;;;;;;18.20;50.30;;;;;;5002604;28;19960;-57
2021/05/07 10:34:14;;;;;;;;;;;18.20;50.30;;;;;;5003373;28;19936;-58
2021/05/07 10:36:43;;;;;;;;;;;18.20;50.30;;;;;;5002981;28;19913;-59
2021/05/07 10:39:18;;;;;;;;;;;18.20;50.30;;;;;;5003168;28;19917;-59
2021/05/07 10:41:43;;;;;;;;;;;18.20;50.30;;;;;;5002957;28;19920;-59
2021/05/07 10:44:10;;;;;;;;;;;18.20;50.30;;;;;;4969289;28;19921;-59
2021/05/07 10:46:35;;;;;;;;;;;18.20;50.30;;;;;;5002872;28;20004;-58
2021/05/07 10:49:01;;;;;;;;;;;18.20;50.30;;;;;;5083844;22;19933;-75
2021/05/07 10:51:27;;;;;;;;;;;18.20;50.30;;;;;;5026032;28;19917;-73
2021/05/07 10:54:08;;;;;;;;;;;18.20;50.30;;;;;;5010152;28;20000;-70
2021/05/07 10:56:35;;;;;;;;;;;18.20;50.60;;;;;;5027018;28;19920;-74
2021/05/07 10:59:09;;;;;;;;;;;18.20;50.30;;;;;;5027453;28;19925;-74
2021/05/07 11:01:35;;;;;;;;;;;18.20;50.30;;;;;;5008976;28;19921;-73
2021/05/07 11:04:01;;;;;;;;;;;18.20;50.30;;;;;;5009502;28;19920;-73
2021/05/07 11:06:30;;;;;;;;;;;18.20;50.30;;;;;;5027069;28;19913;-73
2021/05/07 11:08:56;;;;;;;;;;;18.20;50.40;;;;;;5009795;28;19936;-73
2021/05/07 11:11:21;;;;;;;;;;;18.20;50.40;;;;;;5027245;28;20371;-73
2021/05/07 11:13:46;;;;;;;;;;;18.20;50.40;;;;;;5028553;28;19921;-73
2021/05/07 11:16:12;;;;;;;;;;;18.20;50.40;;;;;;5028107;28;19913;-72
2021/05/07 11:18:37;;;;;;;;;;;18.20;50.40;;;;;;5029080;28;19917;-74
2021/05/07 11:21:12;;;;;;;;;;;18.20;50.40;;;;;;5009544;28;19917;-73
2021/05/07 11:23:38;;;;;;;;;;;18.20;50.40;;;;;;5010029;28;19913;-73
2021/05/07 11:26:04;;;;;;;;;;;18.20;50.40;;;;;;4993131;28;20405;-73
2021/05/07 11:28:29;;;;;;;;;;;18.20;50.40;;;;;;5009448;28;19949;-73
2021/05/07 11:30:56;;;;;;;;;;;18.20;50.40;;;;;;5009552;28;19917;-72
2021/05/07 11:33:22;;;;;;;;;;;18.20;50.50;;;;;;5010224;28;20372;-74
2021/05/07 11:36:01;;;;;;;;;;;18.10;50.40;;;;;;5026653;28;19914;-71
2021/05/07 11:38:29;;;;;;;;;;;18.10;50.40;;;;;;5025354;28;20313;-73
2021/05/07 11:40:54;;;;;;;;;;;18.20;50.50;;;;;;5008803;28;19913;-73
2021/05/07 11:43:20;;;;;;;;;;;18.20;50.50;;;;;;5009248;28;19944;-74
2021/05/07 11:45:45;;;;;;;;;;;18.20;50.40;;;;;;5029093;28;19917;-73
2021/05/07 11:48:11;;;;;;;;;;;18.20;50.40;;;;;;5010786;28;19925;-73
2021/05/07 11:50:37;;;;;;;;;;;18.20;50.50;;;;;;5010700;28;20467;-73
2021/05/07 11:53:02;;;;;;;;;;;18.20;50.40;;;;;;5029175;28;20378;-74
2021/05/07 11:55:30;;;;;;;;;;;18.20;50.40;;;;;;5011514;28;20348;-73
2021/05/07 11:57:56;;;;;;;;;;;18.20;50.30;;;;;;5029208;28;19974;-73
2021/05/07 12:00:21;;;;;;;;;;;18.20;50.10;;;;;;5027527;28;19972;-74
2021/05/07 12:02:56;;;;;;;;;;;18.20;50.00;;;;;;5027002;28;19920;-71
2021/05/07 12:05:27;;;;;;;;;;;18.20;50.00;;;;;;5007806;28;19923;-72
2021/05/07 12:07:52;;;;;;;;;;;18.10;50.00;;;;;;5007782;28;19917;-75
2021/05/07 12:10:21;;;;;;;;;;;18.20;50.00;;;;;;5029678;28;19962;-74
2021/05/07 12:12:47;;;;;;;;;;;18.20;50.00;;;;;;4996745;28;19920;-75
2021/05/07 12:15:13;;;;;;;;;;;18.20;50.10;;;;;;5032928;28;19914;-79
2021/05/07 12:17:47;;;;;;;;;;;18.20;50.20;;;;;;5010742;28;19921;-76
2021/05/07 12:20:13;;;;;;;;;;;18.20;50.50;;;;;;5024448;28;20388;-75
2021/05/07 12:22:39;;;;;;;;;;;18.10;50.50;;;;;;5007155;28;19920;-75
2021/05/07 12:25:07;;;;;;;;;;;18.10;50.40;;;;;;5007597;28;19921;-74
2021/05/07 12:27:33;;;;;;;;;;;18.20;50.30;;;;;;5026645;28;19921;-74
2021/05/07 12:29:58;;;;;;;;;;;18.20;50.10;;;;;;5009905;28;20271;-75
2021/05/07 12:32:24;;;;;;;;;;;18.20;49.90;;;;;;5009752;28;19913;-75
2021/05/07 12:35:00;;;;;;;;;;;18.20;49.40;;;;;;5009430;28;19913;-74
2021/05/07 12:37:35;;;;;;;;;;;18.20;48.90;;;;;;5009050;28;19918;-75
2021/05/07 12:40:01;;;;;;;;;;;18.20;48.70;;;;;;5010134;28;19917;-75
2021/05/07 12:42:26;;;;;;;;;;;18.10;48.20;;;;;;5028748;28;19920;-74
2021/05/07 12:44:52;;;;;;;;;;;18.20;48.00;;;;;;5011109;28;19917;-75
2021/05/07 12:47:17;;;;;;;;;;;18.20;47.60;;;;;;5027830;28;19929;-76
2021/05/07 12:49:43;;;;;;;;;;;18.10;47.60;;;;;;5010754;28;19917;-78
2021/05/07 12:52:08;;;;;;;;;;;18.20;47.40;;;;;;5028480;28;19921;-75
2021/05/07 12:54:33;;;;;;;;;;;18.20;47.20;;;;;;5029583;28;19991;-75
2021/05/07 12:56:59;;;;;;;;;;;18.20;47.10;;;;;;5002395;28;19913;-75
2021/05/07 12:59:24;;;;;;;;;;;18.20;46.60;;;;;;5042770;28;19921;-75
2021/05/07 13:01:50;;;;;;;;;;;18.10;46.50;;;;;;5046750;28;19909;-75
2021/05/07 13:04:15;;;;;;;;;;;18.10;46.30;;;;;;5027293;28;19976;-75
2021/05/07 13:06:41;;;;;;;;;;;18.10;47.60;;;;;;5034651;28;19913;-75
2021/05/07 13:09:06;;;;;;;;;;;18.10;48.40;;;;;;5027447;28;19920;-75
2021/05/07 13:11:32;;;;;;;;;;;18.00;48.70;;;;;;5027242;28;19936;-75
2021/05/07 13:13:57;;;;;;;;;;;18.00;48.60;;;;;;5007813;28;19992;-75
2021/05/07 13:16:23;;;;;;;;;;;18.10;48.20;;;;;;5026022;28;19944;-75
2021/05/07 13:18:48;;;;;;;;;;;18.10;47.60;;;;;;5008897;28;20270;-75
2021/05/07 13:21:14;;;;;;;;;;;18.10;47.30;;;;;;5008057;28;19913;-75
2021/05/07 13:23:39;;;;;;;;;;;18.10;47.00;;;;;;5008425;28;19914;-75
2021/05/07 13:26:05;;;;;;;;;;;18.10;47.50;;;;;;5007990;28;19917;-74
2021/05/07 13:28:30;;;;;;;;;;;18.10;47.00;;;;;;5009739;28;19917;-75
2021/05/07 13:30:56;;;;;;;;;;;18.10;46.90;;;;;;5026018;28;20032;-75
2021/05/07 13:33:24;;;;;;;;;;;18.10;46.90;;;;;;5007902;28;20323;-75
2021/05/07 13:35:49;;;;;;;;;;;18.10;46.80;;;;;;5025540;28;20413;-75
2021/05/07 13:38:15;;;;;;;;;;;18.10;46.60;;;;;;5007559;28;19926;-75
2021/05/07 13:40:40;;;;;;;;;;;18.10;46.40;;;;;;5025875;28;19917;-76
2021/05/07 13:43:06;;;;;;;;;;;18.10;46.40;;;;;;5009789;28;19913;-75
2021/05/07 13:45:31;;;;;;;;;;;18.10;46.30;;;;;;5010953;28;20010;-75
2021/05/07 13:47:57;;;;;;;;;;;18.10;46.20;;;;;;5010658;28;19928;-74
2021/05/07 13:50:24;;;;;;;;;;;18.10;46.10;;;;;;4993899;28;20453;-73
2021/05/07 13:52:49;;;;;;;;;;;18.10;46.10;;;;;;5011261;28;19918;-73
2021/05/07 13:55:15;;;;;;;;;;;18.10;46.30;;;;;;5010196;28;19939;-74
2021/05/07 13:57:40;;;;;;;;;;;18.10;46.20;;;;;;5010416;28;20775;-75
2021/05/07 14:00:06;;;;;;;;;;;18.10;46.20;;;;;;5010129;28;19923;-74
2021/05/07 14:02:32;;;;;;;;;;;18.00;45.90;;;;;;5027922;28;19913;-74
2021/05/07 14:04:59;;;;;;;;;;;18.10;45.90;;;;;;5010352;28;19921;-73
2021/05/07 14:07:24;;;;;;;;;;;18.10;45.80;;;;;;5010838;28;19917;-75
2021/05/07 14:09:50;;;;;;;;;;;18.10;45.90;;;;;;5010645;28;20746;-74
2021/05/07 14:12:15;;;;;;;;;;;18.10;45.60;;;;;;4993347;28;19917;-75